createdAt,value
2023-04-30T00:00:12.873Z,101599.41
2023-04-30T00:02:37.073Z,101596.72
2023-04-30T00:05:00.719Z,101595.16
2023-04-30T00:07:24.414Z,101600.63
2023-04-30T00:09:47.957Z,101602.63
2023-04-30T00:21:06.020Z,101599.13
2023-04-30T00:23:29.578Z,101603.63
2023-04-30T00:25:53.081Z,101610.84
2023-04-30T00:28:16.671Z,101606.06
2023-04-30T00:30:40.300Z,101611.41
2023-04-30T00:33:04.898Z,101602.41
2023-04-30T00:35:28.489Z,101601.03
2023-04-30T00:37:53.691Z,101606.38
2023-04-30T00:40:17.545Z,101614.94
2023-04-30T00:42:41.114Z,101623.31
2023-04-30T00:45:05.007Z,101628.13
2023-04-30T00:47:28.798Z,101623.13
2023-04-30T00:49:52.937Z,101631.03
2023-04-30T00:52:16.759Z,101633.31
2023-04-30T00:54:41.995Z,101639.34
2023-04-30T00:57:09.009Z,101643.66
2023-04-30T00:59:33.551Z,101642.78
2023-04-30T01:01:57.498Z,101643.47
2023-04-30T01:04:21.651Z,101655.41
2023-04-30T01:06:46.658Z,101655.66
2023-04-30T01:09:10.462Z,101659.00
2023-04-30T01:11:53.835Z,101655.56
2023-04-30T01:14:32.500Z,101656.03
2023-04-30T01:17:06.026Z,101652.91
2023-04-30T01:19:43.249Z,101668.81
2023-04-30T01:22:10.848Z,101665.75
2023-04-30T01:24:54.091Z,101672.06
2023-04-30T01:27:33.634Z,101671.81
2023-04-30T01:29:59.324Z,101671.34
2023-04-30T01:32:23.208Z,101665.44
2023-04-30T01:34:47.102Z,101672.16
2023-04-30T01:37:23.716Z,101671.34
2023-04-30T01:40:02.419Z,101678.63
2023-04-30T01:42:36.972Z,101678.41
2023-04-30T01:45:26.018Z,101672.44
2023-04-30T01:47:57.506Z,101684.78
2023-04-30T01:50:32.251Z,101682.56
2023-04-30T01:52:59.053Z,101682.38
2023-04-30T01:55:29.001Z,101688.34
2023-04-30T01:57:59.154Z,101686.25
2023-04-30T02:00:24.911Z,101683.72
2023-04-30T02:02:48.538Z,101681.94
2023-04-30T02:05:12.763Z,101689.63
2023-04-30T02:07:41.620Z,101698.47
2023-04-30T02:10:06.026Z,101703.69
2023-04-30T02:12:30.208Z,101714.56
2023-04-30T02:14:53.826Z,101709.38
2023-04-30T02:17:18.778Z,101712.81
2023-04-30T02:19:42.376Z,101709.84
2023-04-30T02:22:06.005Z,101720.78
2023-04-30T02:24:29.582Z,101722.47
2023-04-30T02:26:53.131Z,101715.97
2023-04-30T02:29:17.414Z,101716.69
2023-04-30T02:31:41.029Z,101726.78
2023-04-30T02:34:09.122Z,101729.56
2023-04-30T02:36:36.257Z,101723.25
2023-04-30T02:38:59.845Z,101729.06
2023-04-30T02:41:23.444Z,101723.19
2023-04-30T02:43:47.069Z,101732.97
2023-04-30T02:46:10.675Z,101738.81
2023-04-30T02:48:34.341Z,101735.50
2023-04-30T02:50:59.254Z,101742.06
2023-04-30T02:53:22.857Z,101736.31
2023-04-30T02:55:46.387Z,101739.84
2023-04-30T02:58:09.984Z,101737.25
2023-04-30T03:00:33.531Z,101737.53
2023-04-30T03:02:57.365Z,101748.22
2023-04-30T03:05:21.121Z,101756.13
2023-04-30T03:07:46.188Z,101758.63
2023-04-30T03:10:11.646Z,101753.81
2023-04-30T03:12:35.255Z,101765.69
2023-04-30T03:14:58.790Z,101759.50
2023-04-30T03:17:23.674Z,101759.06
2023-04-30T03:19:47.244Z,101763.19
2023-04-30T03:22:11.970Z,101768.75
2023-04-30T03:24:36.905Z,101765.31
2023-04-30T03:27:02.067Z,101767.94
2023-04-30T03:29:25.716Z,101771.09
2023-04-30T03:31:49.393Z,101766.81
2023-04-30T03:34:13.267Z,101765.16
2023-04-30T03:36:37.301Z,101775.94
2023-04-30T03:39:00.891Z,101774.53
2023-04-30T03:41:25.982Z,101767.94
2023-04-30T03:43:49.489Z,101778.22
2023-04-30T03:46:13.188Z,101786.66
2023-04-30T03:48:36.740Z,101783.38
2023-04-30T03:51:00.738Z,101787.09
2023-04-30T03:53:25.886Z,101788.66
2023-04-30T03:55:51.330Z,101790.66
2023-04-30T03:58:16.737Z,101788.88
2023-04-30T04:00:42.787Z,101785.75
2023-04-30T04:03:07.455Z,101790.97
2023-04-30T04:05:31.052Z,101791.91
2023-04-30T04:07:54.720Z,101804.06
2023-04-30T04:10:18.451Z,101808.63
2023-04-30T04:12:42.022Z,101813.03
2023-04-30T04:15:08.943Z,101809.63
2023-04-30T04:17:32.589Z,101812.56
2023-04-30T04:19:57.220Z,101812.72
2023-04-30T04:22:21.902Z,101820.00
2023-04-30T04:24:45.773Z,101820.38
2023-04-30T04:27:12.788Z,101833.22
2023-04-30T04:29:36.633Z,101819.63
2023-04-30T04:32:02.913Z,101828.44
2023-04-30T04:34:27.977Z,101820.44
2023-04-30T04:36:51.537Z,101830.00
2023-04-30T04:39:15.620Z,101840.75
2023-04-30T04:41:39.211Z,101830.91
2023-04-30T04:44:04.438Z,101835.25
2023-04-30T04:46:28.441Z,101847.94
2023-04-30T04:48:53.631Z,101838.84
2023-04-30T04:51:17.238Z,101843.50
2023-04-30T04:53:41.010Z,101848.84
2023-04-30T04:56:04.724Z,101849.97
2023-04-30T04:58:28.360Z,101853.91
2023-04-30T05:00:53.041Z,101857.78
2023-04-30T05:03:16.728Z,101865.50
2023-04-30T05:05:41.740Z,101865.25
2023-04-30T05:08:05.452Z,101864.72
2023-04-30T05:10:28.999Z,101869.78
2023-04-30T05:12:54.242Z,101866.13
2023-04-30T05:15:17.992Z,101871.63
2023-04-30T05:17:41.967Z,101883.75
2023-04-30T05:20:07.435Z,101874.97
2023-04-30T05:22:32.509Z,101884.03
2023-04-30T05:24:56.043Z,101882.97
2023-04-30T05:27:19.623Z,101894.34
2023-04-30T05:29:43.175Z,101894.34
2023-04-30T05:32:08.046Z,101896.91
2023-04-30T05:34:32.313Z,101897.72
2023-04-30T05:36:55.951Z,101901.91
2023-04-30T05:39:20.965Z,101906.75
2023-04-30T05:41:44.563Z,101903.78
2023-04-30T05:44:08.071Z,101903.06
2023-04-30T05:46:31.659Z,101907.97
2023-04-30T05:48:55.265Z,101902.00
2023-04-30T05:51:18.943Z,101909.50
2023-04-30T05:53:42.461Z,101902.00
2023-04-30T05:56:08.925Z,101902.56
2023-04-30T05:58:32.887Z,101898.31
2023-04-30T06:00:56.497Z,101909.22
2023-04-30T06:03:21.119Z,101905.38
2023-04-30T06:05:45.695Z,101908.06
2023-04-30T06:08:09.260Z,101905.19
2023-04-30T06:10:32.945Z,101909.72
2023-04-30T06:12:57.907Z,101915.53
2023-04-30T06:15:21.730Z,101917.13
2023-04-30T06:17:45.346Z,101911.13
2023-04-30T06:20:10.359Z,101918.97
2023-04-30T06:22:34.282Z,101922.50
2023-04-30T06:24:58.134Z,101928.13
2023-04-30T06:27:21.700Z,101926.81
2023-04-30T06:29:46.655Z,101922.72
2023-04-30T06:32:10.225Z,101928.06
2023-04-30T06:34:33.789Z,101933.16
2023-04-30T06:36:57.288Z,101933.41
2023-04-30T06:39:21.041Z,101931.94
2023-04-30T06:41:44.837Z,101933.91
2023-04-30T06:44:08.396Z,101934.09
2023-04-30T06:46:34.845Z,101939.19
2023-04-30T06:48:58.601Z,101933.75
2023-04-30T06:51:22.126Z,101934.47
2023-04-30T06:53:45.716Z,101931.19
2023-04-30T06:56:09.619Z,101927.66
2023-04-30T06:58:33.172Z,101925.94
2023-04-30T07:00:56.760Z,101927.31
2023-04-30T07:03:21.852Z,101925.38
2023-04-30T07:05:45.628Z,101935.66
2023-04-30T07:08:09.461Z,101925.41
2023-04-30T07:10:33.342Z,101935.28
2023-04-30T07:12:57.028Z,101935.06
2023-04-30T07:15:20.930Z,101926.91
2023-04-30T07:17:44.632Z,101926.75
2023-04-30T07:20:11.706Z,101933.13
2023-04-30T07:22:35.701Z,101932.56
2023-04-30T07:24:59.342Z,101930.66
2023-04-30T07:27:22.946Z,101929.84
2023-04-30T07:29:46.507Z,101927.28
2023-04-30T07:32:10.044Z,101925.25
2023-04-30T07:34:33.568Z,101922.53
2023-04-30T07:36:58.572Z,101934.25
2023-04-30T07:39:22.085Z,101933.38
2023-04-30T07:41:46.092Z,101940.41
2023-04-30T07:44:09.667Z,101932.22
2023-04-30T07:46:33.412Z,101937.50
2023-04-30T07:48:57.114Z,101939.50
2023-04-30T07:51:20.806Z,101947.44
2023-04-30T07:53:45.964Z,101945.66
2023-04-30T07:56:09.599Z,101950.63
2023-04-30T07:58:33.180Z,101948.44
2023-04-30T08:00:56.939Z,101944.66
2023-04-30T08:03:21.166Z,101948.25
2023-04-30T08:05:44.903Z,101949.53
2023-04-30T08:08:08.818Z,101952.97
2023-04-30T08:10:33.945Z,101948.63
2023-04-30T08:12:57.545Z,101947.28
2023-04-30T08:15:21.856Z,101954.56
2023-04-30T08:17:45.482Z,101951.38
2023-04-30T08:20:10.725Z,101954.06
2023-04-30T08:22:34.389Z,101958.03
2023-04-30T08:24:58.074Z,101954.91
2023-04-30T08:27:23.147Z,101963.56
2023-04-30T08:29:46.789Z,101960.31
2023-04-30T08:32:10.426Z,101956.47
2023-04-30T08:34:34.168Z,101960.97
2023-04-30T08:36:57.682Z,101962.72
2023-04-30T08:39:21.307Z,101968.88
2023-04-30T08:41:55.241Z,101969.16
2023-04-30T08:44:23.953Z,101957.19
2023-04-30T08:46:48.152Z,101964.75
2023-04-30T08:49:12.303Z,101956.97
2023-04-30T08:51:36.325Z,101968.13
2023-04-30T08:53:59.938Z,101973.94
2023-04-30T08:56:25.377Z,101968.41
2023-04-30T08:58:49.237Z,101968.59
2023-04-30T09:01:15.019Z,101969.06
2023-04-30T09:03:39.308Z,101967.75
2023-04-30T09:06:02.944Z,101968.34
2023-04-30T09:08:45.238Z,101961.84
2023-04-30T09:11:23.800Z,101962.19
2023-04-30T09:13:47.397Z,101959.25
2023-04-30T09:16:10.994Z,101962.31
2023-04-30T09:18:41.035Z,101974.03
2023-04-30T09:21:08.248Z,101964.13
2023-04-30T09:23:32.354Z,101966.22
2023-04-30T09:25:56.637Z,101967.06
2023-04-30T09:28:23.833Z,101961.28
2023-04-30T09:30:47.507Z,101961.47
2023-04-30T09:33:12.304Z,101953.16
2023-04-30T09:35:39.886Z,101956.78
2023-04-30T09:38:04.434Z,101961.44
2023-04-30T09:40:37.004Z,101954.28
2023-04-30T09:43:01.577Z,101970.34
2023-04-30T09:45:25.195Z,101966.69
2023-04-30T09:47:48.947Z,101960.31
2023-04-30T09:50:15.432Z,101959.66
2023-04-30T09:52:40.499Z,101959.22
2023-04-30T09:55:04.021Z,101965.78
2023-04-30T09:57:31.777Z,101963.25
2023-04-30T09:59:57.720Z,101955.94
2023-04-30T10:02:23.525Z,101953.84
2023-04-30T10:04:55.714Z,101954.06
2023-04-30T10:07:22.986Z,101947.97
2023-04-30T10:09:51.973Z,101939.47
2023-04-30T10:12:17.680Z,101949.50
2023-04-30T10:14:46.709Z,101944.59
2023-04-30T10:17:15.872Z,101942.97
2023-04-30T10:19:47.688Z,101945.72
2023-04-30T10:22:13.049Z,101939.50
2023-04-30T10:24:36.670Z,101947.09
2023-04-30T10:27:03.155Z,101944.34
2023-04-30T10:29:26.700Z,101938.91
2023-04-30T10:31:52.804Z,101935.50
2023-04-30T10:34:26.870Z,101937.81
2023-04-30T10:36:56.304Z,101923.94
2023-04-30T10:39:22.498Z,101926.63
2023-04-30T10:41:47.441Z,101920.34
2023-04-30T10:44:12.715Z,101928.66
2023-04-30T10:46:37.574Z,101933.22
2023-04-30T10:49:01.347Z,101930.91
2023-04-30T10:51:25.064Z,101921.19
2023-04-30T10:53:52.619Z,101914.25
2023-04-30T10:56:31.162Z,101919.13
2023-04-30T10:58:54.790Z,101923.72
2023-04-30T11:01:19.765Z,101917.44
2023-04-30T11:03:45.351Z,101902.63
2023-04-30T11:06:13.565Z,101913.84
2023-04-30T11:08:38.958Z,101906.41
2023-04-30T11:11:03.856Z,101903.47
2023-04-30T11:13:29.027Z,101901.41
2023-04-30T11:15:52.677Z,101909.75
2023-04-30T11:18:17.828Z,101913.63
2023-04-30T11:20:43.003Z,101910.41
2023-04-30T11:23:21.773Z,101903.16
2023-04-30T11:25:56.601Z,101900.03
2023-04-30T11:28:22.768Z,101908.66
2023-04-30T11:30:54.354Z,101902.97
2023-04-30T11:33:19.641Z,101897.72
2023-04-30T11:35:43.233Z,101905.44
2023-04-30T11:38:09.023Z,101901.38
2023-04-30T11:40:37.704Z,101899.72
2023-04-30T11:43:01.429Z,101898.28
2023-04-30T11:45:25.427Z,101887.13
2023-04-30T11:47:52.122Z,101897.47
2023-04-30T11:50:22.223Z,101894.03
2023-04-30T11:52:52.697Z,101893.88
2023-04-30T11:55:18.721Z,101887.63
2023-04-30T11:57:43.666Z,101886.25
2023-04-30T12:00:15.933Z,101891.06
2023-04-30T12:02:40.023Z,101885.75
2023-04-30T12:05:04.715Z,101889.28
2023-04-30T12:07:29.764Z,101886.69
2023-04-30T12:09:57.095Z,101893.78
2023-04-30T12:12:29.250Z,101880.91
2023-04-30T12:14:53.209Z,101877.03
2023-04-30T12:17:33.764Z,101876.94
2023-04-30T12:19:57.486Z,101879.34
2023-04-30T12:22:21.643Z,101878.66
2023-04-30T12:24:46.671Z,101877.63
2023-04-30T12:27:10.258Z,101880.47
2023-04-30T12:29:34.005Z,101876.63
2023-04-30T12:31:58.123Z,101872.97
2023-04-30T12:34:22.011Z,101876.75
2023-04-30T12:36:45.552Z,101874.06
2023-04-30T12:39:10.768Z,101865.69
2023-04-30T12:41:39.215Z,101864.97
2023-04-30T12:44:23.325Z,101863.41
2023-04-30T12:46:48.147Z,101870.25
2023-04-30T12:49:11.947Z,101860.84
2023-04-30T12:51:37.458Z,101857.97
2023-04-30T12:54:01.099Z,101855.56
2023-04-30T12:56:24.690Z,101847.06
2023-04-30T12:58:51.232Z,101848.69
2023-04-30T13:01:18.408Z,101843.50
2023-04-30T13:03:42.495Z,101843.75
2023-04-30T13:06:07.292Z,101841.84
2023-04-30T13:08:32.590Z,101841.38
2023-04-30T13:10:58.931Z,101841.75
2023-04-30T13:13:22.463Z,101845.19
2023-04-30T13:15:48.191Z,101839.22
2023-04-30T13:18:12.135Z,101842.63
2023-04-30T13:20:35.929Z,101839.81
2023-04-30T13:22:59.428Z,101823.25
2023-04-30T13:25:23.486Z,101830.34
2023-04-30T13:27:47.073Z,101823.84
2023-04-30T13:30:12.510Z,101836.53
2023-04-30T13:32:37.514Z,101835.16
2023-04-30T13:35:01.308Z,101825.03
2023-04-30T13:37:24.889Z,101828.84
2023-04-30T13:39:48.488Z,101823.94
2023-04-30T13:42:12.099Z,101822.50
2023-04-30T13:44:35.904Z,101830.13
2023-04-30T13:46:59.516Z,101822.56
2023-04-30T13:49:24.497Z,101827.72
2023-04-30T13:51:48.062Z,101828.47
2023-04-30T13:54:11.642Z,101820.31
2023-04-30T13:56:35.250Z,101803.47
2023-04-30T13:58:58.879Z,101804.31
2023-04-30T14:01:22.639Z,101794.31
2023-04-30T14:03:47.188Z,101801.59
2023-04-30T14:06:12.228Z,101805.16
2023-04-30T14:08:35.929Z,101796.81
2023-04-30T14:10:59.447Z,101794.03
2023-04-30T14:13:23.044Z,101796.31
2023-04-30T14:15:47.870Z,101795.09
2023-04-30T14:18:12.277Z,101795.66
2023-04-30T14:20:35.932Z,101795.56
2023-04-30T14:23:02.693Z,101788.78
2023-04-30T14:25:26.453Z,101789.38
2023-04-30T14:27:50.065Z,101788.16
2023-04-30T14:30:14.807Z,101781.06
2023-04-30T14:32:38.640Z,101779.78
2023-04-30T14:35:02.561Z,101784.16
2023-04-30T14:37:26.228Z,101780.88
2023-04-30T14:39:51.129Z,101780.09
2023-04-30T14:42:14.731Z,101779.34
2023-04-30T14:44:39.757Z,101778.63
2023-04-30T14:47:04.382Z,101781.63
2023-04-30T14:49:28.046Z,101774.63
2023-04-30T14:51:51.659Z,101773.56
2023-04-30T14:54:15.303Z,101775.88
2023-04-30T14:56:40.482Z,101771.09
2023-04-30T14:59:04.010Z,101761.00
2023-04-30T15:01:28.697Z,101756.53
2023-04-30T15:03:53.209Z,101761.91
2023-04-30T15:06:17.488Z,101766.66
2023-04-30T15:08:41.639Z,101767.06
2023-04-30T15:11:07.066Z,101753.91
2023-04-30T15:13:32.847Z,101760.94
2023-04-30T15:15:56.962Z,101761.94
2023-04-30T15:18:20.545Z,101767.53
2023-04-30T15:20:44.154Z,101768.22
2023-04-30T15:23:08.217Z,101765.53
2023-04-30T15:25:32.186Z,101764.06
2023-04-30T15:27:56.578Z,101759.41
2023-04-30T15:30:22.680Z,101750.50
2023-04-30T15:32:48.773Z,101758.53
2023-04-30T15:35:13.720Z,101755.78
2023-04-30T15:37:37.340Z,101761.09
2023-04-30T15:40:01.112Z,101762.47
2023-04-30T15:42:24.736Z,101764.63
2023-04-30T15:44:48.351Z,101764.56
2023-04-30T15:47:13.548Z,101765.72
2023-04-30T15:49:37.167Z,101756.41
2023-04-30T15:52:00.696Z,101761.59
2023-04-30T15:54:24.433Z,101763.00
2023-04-30T15:56:48.718Z,101750.63
2023-04-30T15:59:17.583Z,101761.00
2023-04-30T16:01:42.977Z,101760.25
2023-04-30T16:04:08.106Z,101759.31
2023-04-30T16:06:32.144Z,101750.59
2023-04-30T16:08:55.778Z,101755.91
2023-04-30T16:11:19.814Z,101762.69
2023-04-30T16:13:43.376Z,101757.13
2023-04-30T16:16:08.871Z,101754.31
2023-04-30T16:18:32.573Z,101748.66
2023-04-30T16:20:57.816Z,101746.53
2023-04-30T16:23:21.348Z,101752.84
2023-04-30T16:25:44.992Z,101749.09
2023-04-30T16:28:08.725Z,101757.16
2023-04-30T16:30:32.754Z,101750.28
2023-04-30T16:32:56.406Z,101747.50
2023-04-30T16:35:20.153Z,101756.78
2023-04-30T16:37:45.100Z,101749.47
2023-04-30T16:40:09.931Z,101744.69
2023-04-30T16:42:33.927Z,101747.03
2023-04-30T16:44:57.558Z,101748.22
2023-04-30T16:47:21.265Z,101745.19
2023-04-30T16:49:44.947Z,101747.94
2023-04-30T16:52:08.508Z,101741.72
2023-04-30T16:54:33.588Z,101735.38
2023-04-30T16:56:57.157Z,101731.69
2023-04-30T16:59:21.008Z,101735.97
2023-04-30T17:01:45.636Z,101733.66
2023-04-30T17:04:09.314Z,101736.03
2023-04-30T17:06:33.576Z,101725.97
2023-04-30T17:08:57.284Z,101729.56
2023-04-30T17:11:23.347Z,101732.63
2023-04-30T17:13:46.905Z,101736.25
2023-04-30T17:16:10.497Z,101728.88
2023-04-30T17:18:34.169Z,101734.34
2023-04-30T17:20:58.264Z,101739.06
2023-04-30T17:23:21.866Z,101734.47
2023-04-30T17:25:45.826Z,101742.34
2023-04-30T17:28:10.933Z,101734.88
2023-04-30T17:30:35.321Z,101738.13
2023-04-30T17:33:00.431Z,101733.34
2023-04-30T17:35:24.265Z,101734.53
2023-04-30T17:37:48.141Z,101730.13
2023-04-30T17:40:12.438Z,101737.66
2023-04-30T17:42:36.018Z,101734.47
2023-04-30T17:45:02.233Z,101728.94
2023-04-30T17:47:25.949Z,101735.72
2023-04-30T17:49:49.673Z,101737.09
2023-04-30T17:52:13.949Z,101739.56
2023-04-30T17:54:38.194Z,101737.31
2023-04-30T17:57:02.281Z,101738.38
2023-04-30T17:59:25.923Z,101735.91
2023-04-30T18:01:50.941Z,101736.59
2023-04-30T18:04:19.319Z,101735.75
2023-04-30T18:06:43.179Z,101739.34
2023-04-30T18:09:06.774Z,101744.66
2023-04-30T18:11:30.453Z,101740.25
2023-04-30T18:13:54.001Z,101739.28
2023-04-30T18:16:17.816Z,101743.72
2023-04-30T18:18:42.842Z,101739.03
2023-04-30T18:21:06.497Z,101738.06
2023-04-30T18:23:30.002Z,101733.28
2023-04-30T18:25:53.698Z,101730.69
2023-04-30T18:28:17.312Z,101746.63
2023-04-30T18:30:41.113Z,101741.72
2023-04-30T18:33:05.375Z,101734.81
2023-04-30T18:35:30.451Z,101749.06
2023-04-30T18:37:54.346Z,101742.53
2023-04-30T18:40:17.941Z,101746.19
2023-04-30T18:42:41.588Z,101747.63
2023-04-30T18:45:06.178Z,101746.47
2023-04-30T18:47:30.881Z,101745.78
2023-04-30T18:49:54.865Z,101754.16
2023-04-30T18:52:20.008Z,101757.41
2023-04-30T18:54:43.578Z,101762.00
2023-04-30T18:57:07.980Z,101758.50
2023-04-30T18:59:31.600Z,101763.16
2023-04-30T19:01:55.710Z,101766.09
2023-04-30T19:04:19.495Z,101764.81
2023-04-30T19:06:43.383Z,101758.56
2023-04-30T19:09:09.307Z,101766.13
2023-04-30T19:11:35.548Z,101771.38
2023-04-30T19:13:59.325Z,101767.09
2023-04-30T19:16:22.920Z,101766.00
2023-04-30T19:18:46.736Z,101770.53
2023-04-30T19:21:12.910Z,101776.31
2023-04-30T19:23:36.632Z,101771.22
2023-04-30T19:26:01.954Z,101770.78
2023-04-30T19:28:25.825Z,101775.47
2023-04-30T19:30:54.295Z,101773.97
2023-04-30T19:33:18.175Z,101771.59
2023-04-30T19:35:41.776Z,101770.88
2023-04-30T19:38:06.591Z,101769.44
2023-04-30T19:40:30.193Z,101764.47
2023-04-30T19:42:55.520Z,101774.31
2023-04-30T19:45:19.270Z,101774.81
2023-04-30T19:47:42.924Z,101773.78
2023-04-30T19:50:08.074Z,101777.75
2023-04-30T19:52:31.708Z,101778.31
2023-04-30T19:54:55.451Z,101777.66
2023-04-30T19:57:19.452Z,101779.56
2023-04-30T19:59:47.252Z,101774.97
2023-04-30T20:02:11.162Z,101795.09
2023-04-30T20:04:34.813Z,101792.22
2023-04-30T20:06:58.767Z,101795.00
2023-04-30T20:09:22.271Z,101791.91
2023-04-30T20:11:49.488Z,101792.41
2023-04-30T20:14:13.053Z,101789.19
2023-04-30T20:16:38.131Z,101787.72
2023-04-30T20:19:01.763Z,101782.34
2023-04-30T20:21:26.111Z,101788.09
2023-04-30T20:23:49.623Z,101793.72
2023-04-30T20:26:13.339Z,101795.16
2023-04-30T20:28:36.938Z,101793.69
2023-04-30T20:31:01.087Z,101792.63
2023-04-30T20:33:28.754Z,101780.44
2023-04-30T20:35:52.373Z,101789.75
2023-04-30T20:38:18.905Z,101794.09
2023-04-30T20:40:43.627Z,101797.03
2023-04-30T20:43:07.475Z,101790.31
2023-04-30T20:45:31.965Z,101794.19
2023-04-30T20:47:55.632Z,101795.03
2023-04-30T20:50:21.241Z,101790.72
2023-04-30T20:52:44.808Z,101788.06
2023-04-30T20:55:09.897Z,101785.81
2023-04-30T20:57:33.538Z,101787.97
2023-04-30T20:59:57.382Z,101789.28
2023-04-30T21:02:21.132Z,101786.00
2023-04-30T21:04:44.776Z,101788.16
2023-04-30T21:07:09.744Z,101786.84
2023-04-30T21:09:35.832Z,101787.88
2023-04-30T21:11:59.619Z,101789.09
2023-04-30T21:14:23.406Z,101794.25
2023-04-30T21:16:46.954Z,101792.97
2023-04-30T21:19:11.208Z,101794.25
2023-04-30T21:21:34.847Z,101794.59
2023-04-30T21:24:01.045Z,101795.69
2023-04-30T21:26:24.639Z,101797.66
2023-04-30T21:28:48.226Z,101801.13
2023-04-30T21:31:11.856Z,101796.81
2023-04-30T21:33:35.685Z,101796.25
2023-04-30T21:35:59.174Z,101795.50
2023-04-30T21:38:22.916Z,101796.91
2023-04-30T21:40:47.859Z,101802.84
2023-04-30T21:43:11.520Z,101793.78
2023-04-30T21:45:35.089Z,101796.38
2023-04-30T21:47:58.749Z,101788.84
2023-04-30T21:50:23.800Z,101790.50
2023-04-30T21:52:47.442Z,101796.00
2023-04-30T21:55:11.685Z,101783.19
2023-04-30T21:57:36.785Z,101780.97
2023-04-30T22:00:00.694Z,101784.38
2023-04-30T22:02:25.593Z,101787.59
2023-04-30T22:04:49.221Z,101792.22
2023-04-30T22:07:12.897Z,101797.03
2023-04-30T22:09:36.468Z,101796.53
2023-04-30T22:12:00.266Z,101795.22
2023-04-30T22:14:25.253Z,101788.16
2023-04-30T22:16:49.037Z,101794.97
2023-04-30T22:19:12.578Z,101791.44
2023-04-30T22:21:36.293Z,101795.78
2023-04-30T22:24:00.896Z,101791.50
2023-04-30T22:26:25.445Z,101790.59
2023-04-30T22:28:49.114Z,101789.50
2023-04-30T22:31:14.123Z,101792.78
2023-04-30T22:33:38.235Z,101784.44
2023-04-30T22:36:01.893Z,101785.38
2023-04-30T22:38:25.552Z,101793.06
2023-04-30T22:40:49.218Z,101784.13
2023-04-30T22:43:12.882Z,101786.97
2023-04-30T22:45:40.250Z,101779.72
2023-04-30T22:48:05.653Z,101778.28
2023-04-30T22:50:29.351Z,101779.22
2023-04-30T22:52:56.289Z,101776.50
2023-04-30T22:55:20.052Z,101774.91
2023-04-30T22:57:43.667Z,101775.06
2023-04-30T23:00:09.414Z,101777.66
2023-04-30T23:02:34.160Z,101777.75
2023-04-30T23:04:59.255Z,101773.50
2023-04-30T23:07:22.817Z,101769.75
2023-04-30T23:09:46.396Z,101772.34
2023-04-30T23:12:10.235Z,101776.75
2023-04-30T23:14:33.907Z,101764.41
2023-04-30T23:16:57.456Z,101772.03
2023-04-30T23:19:21.461Z,101771.28
2023-04-30T23:21:46.426Z,101763.09
2023-04-30T23:24:11.211Z,101766.22
2023-04-30T23:26:34.787Z,101760.88
2023-04-30T23:28:58.368Z,101759.94
2023-04-30T23:31:21.914Z,101747.53
2023-04-30T23:33:45.589Z,101752.31
2023-04-30T23:36:09.276Z,101749.78
2023-04-30T23:38:34.314Z,101742.78
2023-04-30T23:40:57.822Z,101741.94
2023-04-30T23:43:21.385Z,101741.25
2023-04-30T23:45:44.912Z,101741.34
2023-04-30T23:48:08.762Z,101743.41
2023-04-30T23:50:32.288Z,101742.41
2023-04-30T23:52:55.911Z,101742.66
2023-04-30T23:55:21.343Z,101740.19
2023-04-30T23:57:45.055Z,101736.63
